createdAt,value
2018-08-25T00:01:25.922Z,52.50
2018-08-25T00:04:32.932Z,52.30
2018-08-25T00:07:01.472Z,52.40
2018-08-25T00:09:29.982Z,52.50
2018-08-25T00:11:58.458Z,52.30
2018-08-25T00:14:26.929Z,52.20
2018-08-25T00:16:55.454Z,52.20
2018-08-25T00:19:23.963Z,52.30
2018-08-25T00:21:52.519Z,52.40
2018-08-25T00:24:21.085Z,52.40
2018-08-25T00:26:49.582Z,52.40
2018-08-25T00:29:18.084Z,52.50
2018-08-25T00:31:46.648Z,52.50
2018-08-25T00:34:15.105Z,52.50
2018-08-25T00:36:43.618Z,52.50
2018-08-25T00:39:12.110Z,52.40
2018-08-25T00:41:40.604Z,52.60
2018-08-25T00:44:09.139Z,52.50
2018-08-25T00:46:37.598Z,52.60
2018-08-25T00:49:06.090Z,52.60
2018-08-25T00:51:34.646Z,52.50
2018-08-25T00:54:03.115Z,52.50
2018-08-25T00:56:31.555Z,52.40
2018-08-25T00:59:00.149Z,52.40
2018-08-25T01:01:28.748Z,52.50
2018-08-25T01:03:57.271Z,52.40
2018-08-25T01:06:25.787Z,52.50
2018-08-25T01:08:54.335Z,52.50
2018-08-25T01:11:22.841Z,52.30
2018-08-25T01:13:51.299Z,52.30
2018-08-25T01:16:19.864Z,52.40
2018-08-25T01:18:48.348Z,52.60
2018-08-25T01:21:16.827Z,52.50
2018-08-25T01:23:45.324Z,52.50
2018-08-25T01:26:13.793Z,52.40
2018-08-25T01:28:42.259Z,52.40
2018-08-25T01:31:10.847Z,52.30
2018-08-25T01:33:39.354Z,52.40
2018-08-25T01:36:07.842Z,52.40
2018-08-25T01:38:36.343Z,52.60
2018-08-25T01:41:04.793Z,52.50
2018-08-25T01:43:33.280Z,52.60
2018-08-25T01:46:01.814Z,52.60
2018-08-25T01:48:30.426Z,52.60
2018-08-25T01:50:59.009Z,52.70
2018-08-25T01:53:27.483Z,52.60
2018-08-25T01:55:55.985Z,52.60
2018-08-25T01:58:24.511Z,52.70
2018-08-25T02:00:53.025Z,52.60
2018-08-25T02:03:21.528Z,52.70
2018-08-25T02:05:50.074Z,52.70
2018-08-25T02:08:18.616Z,52.70
2018-08-25T02:10:47.104Z,52.90
2018-08-25T02:13:15.745Z,52.80
2018-08-25T02:15:44.263Z,52.80
2018-08-25T02:18:12.754Z,52.80
2018-08-25T02:20:41.227Z,53.40
2018-08-25T02:23:09.749Z,52.80
2018-08-25T02:25:38.278Z,52.90
2018-08-25T02:28:06.876Z,53.00
2018-08-25T02:30:35.315Z,53.00
2018-08-25T02:33:03.915Z,53.00
2018-08-25T02:35:32.399Z,52.90
2018-08-25T02:38:00.893Z,53.00
2018-08-25T02:40:29.365Z,53.00
2018-08-25T02:42:57.932Z,53.00
2018-08-25T02:45:26.369Z,53.00
2018-08-25T02:47:55.163Z,53.00
2018-08-25T02:50:24.398Z,53.00
2018-08-25T02:52:53.505Z,53.80
2018-08-25T02:55:22.024Z,52.90
2018-08-25T02:57:50.490Z,52.90
2018-08-25T03:00:18.975Z,52.80
2018-08-25T03:02:47.469Z,52.90
2018-08-25T03:05:16.033Z,52.80
2018-08-25T03:07:44.542Z,52.80
2018-08-25T03:10:14.888Z,52.80
2018-08-25T03:12:43.394Z,52.80
2018-08-25T03:15:11.839Z,52.80
2018-08-25T03:17:40.308Z,52.70
2018-08-25T03:20:08.886Z,53.20
2018-08-25T03:22:37.415Z,52.70
2018-08-25T03:25:05.886Z,52.70
2018-08-25T03:27:34.367Z,52.80
2018-08-25T03:30:02.905Z,52.80
2018-08-25T03:32:31.371Z,52.80
2018-08-25T03:34:59.956Z,52.80
2018-08-25T03:37:28.486Z,52.80
2018-08-25T03:39:57.004Z,52.80
2018-08-25T03:42:25.523Z,52.80
2018-08-25T03:44:54.079Z,53.20
2018-08-25T03:47:22.565Z,53.00
2018-08-25T03:49:51.079Z,53.00
2018-08-25T03:52:19.675Z,53.00
2018-08-25T03:54:48.219Z,53.00
2018-08-25T03:57:16.698Z,52.70
2018-08-25T03:59:45.145Z,52.70
2018-08-25T04:02:13.460Z,52.80
2018-08-25T04:04:41.885Z,52.50
2018-08-25T04:07:10.874Z,52.20
2018-08-25T04:09:39.234Z,52.30
2018-08-25T04:12:07.690Z,52.00
2018-08-25T04:14:36.000Z,52.10
2018-08-25T04:17:04.300Z,51.60
2018-08-25T04:19:32.638Z,51.90
2018-08-25T04:22:00.953Z,52.10
2018-08-25T04:24:29.349Z,52.30
2018-08-25T04:26:57.776Z,52.10
2018-08-25T04:29:26.172Z,52.20
2018-08-25T04:31:54.470Z,52.10
2018-08-25T04:34:22.811Z,52.10
2018-08-25T04:36:51.161Z,52.10
2018-08-25T04:39:19.472Z,52.10
2018-08-25T04:41:47.882Z,52.10
2018-08-25T04:44:16.277Z,52.20
2018-08-25T04:46:44.834Z,52.20
2018-08-25T04:49:13.156Z,52.80
2018-08-25T04:51:41.522Z,52.50
2018-08-25T04:54:10.031Z,52.40
2018-08-25T04:56:38.478Z,52.40
2018-08-25T04:59:06.828Z,52.20
2018-08-25T05:01:35.134Z,52.30
2018-08-25T05:04:03.464Z,52.20
2018-08-25T05:06:31.820Z,52.20
2018-08-25T05:09:00.112Z,52.10
2018-08-25T05:11:28.511Z,52.10
2018-08-25T05:13:56.891Z,52.20
2018-08-25T05:16:25.251Z,52.20
2018-08-25T05:18:53.615Z,52.30
2018-08-25T05:21:22.047Z,52.30
2018-08-25T05:23:50.381Z,52.30
2018-08-25T05:26:18.707Z,52.40
2018-08-25T05:28:47.054Z,52.40
2018-08-25T05:31:15.461Z,52.20
2018-08-25T05:33:43.759Z,52.20
2018-08-25T05:36:12.088Z,52.60
2018-08-25T05:38:40.552Z,52.40
2018-08-25T05:41:08.885Z,52.40
2018-08-25T05:43:37.321Z,52.40
2018-08-25T05:46:05.780Z,52.30
2018-08-25T05:48:34.250Z,52.40
2018-08-25T05:51:02.580Z,52.40
2018-08-25T05:53:30.911Z,52.40
2018-08-25T05:55:59.292Z,52.40
2018-08-25T05:58:27.690Z,52.50
2018-08-25T06:00:56.026Z,52.50
2018-08-25T06:03:24.531Z,52.50
2018-08-25T06:05:52.867Z,52.50
2018-08-25T06:08:21.296Z,52.60
2018-08-25T06:10:49.620Z,52.60
2018-08-25T06:13:18.182Z,52.60
2018-08-25T06:15:46.586Z,52.60
2018-08-25T06:18:14.921Z,52.60
2018-08-25T06:20:43.315Z,52.80
2018-08-25T06:23:11.688Z,52.80
2018-08-25T06:25:40.046Z,52.70
2018-08-25T06:28:08.410Z,52.70
2018-08-25T06:30:36.756Z,52.70
2018-08-25T06:33:05.403Z,52.70
2018-08-25T06:35:33.715Z,52.80
2018-08-25T06:38:02.092Z,52.80
2018-08-25T06:40:30.502Z,52.80
2018-08-25T06:42:58.844Z,52.80
2018-08-25T06:45:27.264Z,52.90
2018-08-25T06:47:55.640Z,53.30
2018-08-25T06:50:23.976Z,52.80
2018-08-25T06:52:52.362Z,52.80
2018-08-25T06:55:20.710Z,52.80
2018-08-25T06:57:49.007Z,53.10
2018-08-25T07:00:17.340Z,52.80
2018-08-25T07:02:45.668Z,52.90
2018-08-25T07:05:13.989Z,52.90
2018-08-25T07:07:42.382Z,53.10
2018-08-25T07:10:10.756Z,52.90
2018-08-25T07:12:39.058Z,52.90
2018-08-25T07:15:07.400Z,52.90
2018-08-25T07:17:35.735Z,53.00
2018-08-25T07:20:04.036Z,53.00
2018-08-25T07:22:32.389Z,53.00
2018-08-25T07:25:00.723Z,53.70
2018-08-25T07:27:29.042Z,53.10
2018-08-25T07:29:57.381Z,53.10
2018-08-25T07:32:25.744Z,53.10
2018-08-25T07:34:54.049Z,53.10
2018-08-25T07:37:22.457Z,53.10
2018-08-25T07:39:50.795Z,53.20
2018-08-25T07:42:19.142Z,53.20
2018-08-25T07:44:47.484Z,53.30
2018-08-25T07:47:15.899Z,53.20
2018-08-25T07:49:44.324Z,53.30
2018-08-25T07:52:12.696Z,53.30
2018-08-25T07:54:41.124Z,53.30
2018-08-25T07:57:09.504Z,53.30
2018-08-25T07:59:37.868Z,53.20
2018-08-25T08:02:06.642Z,53.00
2018-08-25T08:04:34.972Z,52.80
2018-08-25T08:07:03.402Z,52.70
2018-08-25T08:09:31.800Z,52.70
2018-08-25T08:12:00.159Z,52.70
2018-08-25T08:14:28.515Z,52.50
2018-08-25T08:16:56.867Z,52.40
2018-08-25T08:19:25.215Z,52.40
2018-08-25T08:21:53.534Z,52.50
2018-08-25T08:24:22.014Z,52.70
2018-08-25T08:26:50.415Z,52.70
2018-08-25T08:29:18.875Z,52.70
2018-08-25T08:31:47.286Z,52.80
2018-08-25T08:34:15.654Z,52.80
2018-08-25T08:36:44.325Z,52.80
2018-08-25T08:39:12.705Z,52.90
2018-08-25T08:41:41.025Z,53.10
2018-08-25T08:44:09.574Z,53.10
2018-08-25T08:46:37.999Z,53.20
2018-08-25T08:49:07.581Z,53.20
2018-08-25T08:51:37.215Z,53.40
2018-08-25T08:54:05.527Z,53.80
2018-08-25T08:56:33.880Z,53.30
2018-08-25T08:59:02.597Z,53.90
2018-08-25T09:01:31.612Z,53.20
2018-08-25T09:03:59.972Z,53.20
2018-08-25T09:06:28.360Z,53.20
2018-08-25T09:08:56.706Z,53.10
2018-08-25T09:11:25.120Z,53.10
2018-08-25T09:13:53.515Z,53.20
2018-08-25T09:16:22.078Z,53.30
2018-08-25T09:18:50.489Z,53.40
2018-08-25T09:21:19.504Z,53.30
2018-08-25T09:23:47.868Z,53.20
2018-08-25T09:26:16.275Z,53.00
2018-08-25T09:28:44.607Z,53.10
2018-08-25T09:31:12.942Z,52.80
2018-08-25T09:33:41.319Z,52.60
2018-08-25T09:36:09.788Z,52.80
2018-08-25T09:38:38.037Z,52.80
2018-08-25T09:41:06.389Z,52.70
2018-08-25T09:43:34.787Z,52.60
2018-08-25T09:46:03.183Z,52.20
2018-08-25T09:48:31.524Z,52.20
2018-08-25T09:50:59.879Z,52.20
2018-08-25T09:53:28.201Z,52.20
2018-08-25T09:55:56.619Z,52.20
2018-08-25T09:58:25.025Z,52.20
2018-08-25T10:00:58.807Z,52.20
2018-08-25T10:03:27.187Z,52.20
2018-08-25T10:05:55.495Z,52.10
2018-08-25T10:08:23.853Z,51.80
2018-08-25T10:10:52.249Z,51.70
2018-08-25T10:13:20.538Z,51.60
2018-08-25T10:15:49.862Z,51.70
2018-08-25T10:18:18.398Z,52.00
2018-08-25T10:20:46.703Z,52.10
2018-08-25T10:23:15.157Z,51.90
2018-08-25T10:25:43.371Z,52.00
2018-08-25T10:28:11.840Z,52.20
2018-08-25T10:30:40.165Z,52.30
2018-08-25T10:33:08.519Z,52.30
2018-08-25T10:35:36.822Z,52.20
2018-08-25T10:38:05.612Z,52.20
2018-08-25T10:40:33.947Z,52.30
2018-08-25T10:43:02.234Z,52.10
2018-08-25T10:45:30.573Z,52.10
2018-08-25T10:47:58.948Z,52.20
2018-08-25T10:50:27.275Z,52.10
2018-08-25T10:52:55.624Z,52.10
2018-08-25T10:55:24.000Z,52.10
2018-08-25T10:57:52.297Z,52.20
2018-08-25T11:00:20.685Z,52.10
2018-08-25T11:02:48.941Z,52.20
2018-08-25T11:05:17.363Z,52.20
2018-08-25T11:07:45.680Z,52.10
2018-08-25T11:10:13.994Z,52.10
2018-08-25T11:12:42.322Z,51.90
2018-08-25T11:15:10.842Z,52.00
2018-08-25T11:17:39.154Z,52.10
2018-08-25T11:20:07.602Z,52.20
2018-08-25T11:22:36.035Z,52.10
2018-08-25T11:25:04.326Z,52.10
2018-08-25T11:27:32.679Z,52.00
2018-08-25T11:30:01.029Z,52.00
2018-08-25T11:32:29.396Z,52.00
2018-08-25T11:34:57.756Z,52.10
2018-08-25T11:37:26.144Z,52.20
2018-08-25T11:39:54.455Z,52.10
2018-08-25T11:42:22.789Z,52.20
2018-08-25T11:44:51.213Z,52.20
2018-08-25T11:47:19.572Z,52.20
2018-08-25T11:49:48.083Z,52.10
2018-08-25T11:52:16.357Z,52.20
2018-08-25T11:54:44.868Z,52.10
2018-08-25T11:57:13.198Z,51.80
2018-08-25T11:59:41.603Z,51.60
2018-08-25T12:02:09.994Z,51.40
2018-08-25T12:04:38.254Z,51.40
2018-08-25T12:07:06.587Z,51.10
2018-08-25T12:09:35.065Z,51.60
2018-08-25T12:12:03.339Z,51.50
2018-08-25T12:14:31.741Z,51.60
2018-08-25T12:17:00.134Z,51.50
2018-08-25T12:19:28.998Z,51.50
2018-08-25T12:21:57.267Z,51.50
2018-08-25T12:24:25.591Z,51.70
2018-08-25T12:26:54.823Z,51.60
2018-08-25T12:29:23.237Z,51.60
2018-08-25T12:31:51.624Z,51.50
2018-08-25T12:34:20.047Z,51.60
2018-08-25T12:36:48.399Z,51.60
2018-08-25T12:39:16.747Z,51.70
2018-08-25T12:41:45.225Z,51.60
2018-08-25T12:44:13.795Z,51.50
2018-08-25T12:46:42.725Z,51.50
2018-08-25T12:49:11.030Z,51.20
2018-08-25T12:51:39.551Z,51.10
2018-08-25T12:54:07.786Z,51.20
2018-08-25T12:56:36.953Z,51.10
2018-08-25T12:59:05.444Z,51.30
2018-08-25T13:01:34.019Z,51.20
2018-08-25T13:04:03.511Z,51.20
2018-08-25T13:06:32.999Z,51.00
2018-08-25T13:09:02.116Z,51.30
2018-08-25T13:11:30.488Z,51.20
2018-08-25T13:13:59.646Z,51.60
2018-08-25T13:16:27.995Z,51.70
2018-08-25T13:18:56.349Z,51.80
2018-08-25T13:21:24.951Z,52.00
2018-08-25T13:23:54.440Z,52.00
2018-08-25T13:26:23.136Z,52.10
2018-08-25T13:28:51.431Z,52.00
2018-08-25T13:31:20.372Z,52.70
2018-08-25T13:33:49.627Z,52.50
2018-08-25T13:36:18.892Z,52.50
2018-08-25T13:38:47.491Z,52.50
2018-08-25T13:41:16.166Z,52.50
2018-08-25T13:43:45.389Z,52.70
2018-08-25T13:46:14.169Z,52.70
2018-08-25T13:48:43.869Z,53.00
2018-08-25T13:51:13.458Z,53.00
2018-08-25T13:53:42.767Z,53.10
2018-08-25T13:56:11.131Z,53.20
2018-08-25T13:58:41.299Z,53.10
2018-08-25T14:01:09.907Z,53.00
2018-08-25T14:03:39.531Z,53.10
2018-08-25T14:06:08.100Z,53.20
2018-08-25T14:08:37.369Z,53.20
2018-08-25T14:11:05.704Z,52.90
2018-08-25T14:13:34.039Z,52.90
2018-08-25T14:16:02.391Z,52.60
2018-08-25T14:18:30.707Z,52.70
2018-08-25T14:21:00.471Z,52.60
2018-08-25T14:23:29.165Z,52.50
2018-08-25T14:25:57.549Z,52.70
2018-08-25T14:28:27.106Z,52.70
2018-08-25T14:30:55.392Z,52.60
2018-08-25T14:33:24.227Z,52.70
2018-08-25T14:35:52.526Z,52.80
2018-08-25T14:38:20.899Z,52.80
2018-08-25T14:40:50.568Z,53.00
2018-08-25T14:43:19.636Z,53.00
2018-08-25T14:45:48.266Z,53.00
2018-08-25T14:48:17.067Z,53.00
2018-08-25T14:50:45.485Z,53.00
2018-08-25T14:53:16.132Z,52.90
2018-08-25T14:55:45.772Z,52.90
2018-08-25T14:58:14.810Z,52.90
2018-08-25T15:00:43.256Z,52.90
2018-08-25T15:03:11.689Z,53.00
2018-08-25T15:05:41.001Z,52.30
2018-08-25T15:08:09.417Z,51.50
2018-08-25T15:10:38.288Z,52.60
2018-08-25T15:13:06.746Z,52.20
2018-08-25T15:15:35.122Z,52.10
2018-08-25T15:18:03.967Z,52.00
2018-08-25T15:20:32.832Z,52.00
2018-08-25T15:23:03.673Z,52.20
2018-08-25T15:25:33.401Z,51.20
2018-08-25T15:28:01.737Z,50.50
2018-08-25T15:30:30.099Z,48.80
2018-08-25T15:32:59.110Z,48.10
2018-08-25T15:35:28.109Z,49.40
2018-08-25T15:37:57.895Z,50.00
2018-08-25T15:40:27.143Z,49.40
2018-08-25T15:42:56.085Z,49.40
2018-08-25T15:45:24.443Z,49.40
2018-08-25T15:47:52.847Z,49.60
2018-08-25T15:50:22.889Z,49.70
2018-08-25T15:52:51.326Z,50.10
2018-08-25T15:55:20.229Z,50.00
2018-08-25T15:57:48.613Z,49.80
2018-08-25T16:00:16.968Z,49.90
2018-08-25T16:02:45.872Z,50.20
2018-08-25T16:05:14.668Z,50.20
2018-08-25T16:07:43.084Z,50.10
2018-08-25T16:10:13.059Z,50.20
2018-08-25T16:12:41.917Z,50.20
2018-08-25T16:15:10.251Z,50.10
2018-08-25T16:17:39.034Z,50.20
2018-08-25T16:20:07.855Z,49.70
2018-08-25T16:22:36.964Z,49.80
2018-08-25T16:25:06.743Z,50.10
2018-08-25T16:27:35.826Z,50.70
2018-08-25T16:30:04.529Z,50.40
2018-08-25T16:32:33.364Z,50.40
2018-08-25T16:35:02.542Z,50.20
2018-08-25T16:37:30.884Z,50.10
2018-08-25T16:39:59.581Z,50.00
2018-08-25T16:42:29.336Z,50.20
2018-08-25T16:44:57.868Z,50.30
2018-08-25T16:47:28.109Z,50.40
2018-08-25T16:49:56.694Z,50.40
2018-08-25T16:52:25.750Z,50.10
2018-08-25T16:54:54.580Z,49.90
2018-08-25T16:57:22.928Z,49.80
2018-08-25T16:59:51.757Z,49.70
2018-08-25T17:02:20.791Z,49.70
2018-08-25T17:04:49.753Z,49.70
2018-08-25T17:07:18.935Z,49.70
2018-08-25T17:09:47.378Z,49.80
2018-08-25T17:12:16.193Z,49.70
2018-08-25T17:14:45.033Z,49.70
2018-08-25T17:17:13.775Z,49.50
2018-08-25T17:19:42.785Z,49.60
2018-08-25T17:22:11.560Z,49.50
2018-08-25T17:24:40.348Z,49.10
2018-08-25T17:27:09.701Z,49.50
2018-08-25T17:29:39.553Z,49.10
2018-08-25T17:32:08.490Z,49.20
2018-08-25T17:34:37.307Z,48.80
2018-08-25T17:37:07.237Z,48.80
2018-08-25T17:39:36.063Z,48.90
2018-08-25T17:42:04.929Z,48.80
2018-08-25T17:44:33.282Z,48.90
2018-08-25T17:47:01.653Z,49.00
2018-08-25T17:49:30.624Z,48.90
2018-08-25T17:51:58.973Z,49.00
2018-08-25T17:54:27.344Z,48.80
2018-08-25T17:56:55.793Z,49.10
2018-08-25T17:59:24.158Z,49.00
2018-08-25T18:01:52.529Z,48.90
2018-08-25T18:04:21.383Z,49.00
2018-08-25T18:06:49.711Z,49.70
2018-08-25T18:09:18.048Z,49.20
2018-08-25T18:11:46.379Z,49.00
2018-08-25T18:14:15.743Z,48.90
2018-08-25T18:16:44.378Z,49.10
2018-08-25T18:19:13.166Z,49.00
2018-08-25T18:21:41.880Z,49.10
2018-08-25T18:24:10.582Z,49.10
2018-08-25T18:26:39.197Z,49.00
2018-08-25T18:29:08.469Z,49.40
2018-08-25T18:31:37.086Z,49.20
2018-08-25T18:34:06.768Z,49.10
2018-08-25T18:36:35.628Z,49.10
2018-08-25T18:39:07.111Z,49.20
2018-08-25T18:41:36.652Z,49.20
2018-08-25T18:44:05.449Z,49.10
2018-08-25T18:46:35.271Z,49.10
2018-08-25T18:49:03.764Z,49.20
2018-08-25T18:51:32.545Z,49.20
2018-08-25T18:54:00.872Z,49.30
2018-08-25T18:56:31.242Z,49.20
2018-08-25T18:59:00.815Z,49.20
2018-08-25T19:01:29.836Z,49.50
2018-08-25T19:03:58.224Z,49.40
2018-08-25T19:06:27.008Z,49.40
2018-08-25T19:08:56.772Z,49.40
2018-08-25T19:11:25.706Z,49.50
2018-08-25T19:13:54.951Z,49.60
2018-08-25T19:16:24.027Z,49.60
2018-08-25T19:18:52.701Z,49.50
2018-08-25T19:21:21.681Z,49.70
2018-08-25T19:23:52.787Z,49.60
2018-08-25T19:26:21.519Z,49.70
2018-08-25T19:28:50.300Z,49.70
2018-08-25T19:31:19.024Z,49.90
2018-08-25T19:33:48.286Z,49.90
2018-08-25T19:36:17.741Z,50.00
2018-08-25T19:38:46.577Z,50.60
2018-08-25T19:41:15.543Z,50.00
2018-08-25T19:43:44.666Z,50.10
2018-08-25T19:46:13.351Z,50.10
2018-08-25T19:48:42.448Z,50.10
2018-08-25T19:51:11.400Z,50.30
2018-08-25T19:53:40.421Z,50.20
2018-08-25T19:56:10.900Z,50.20
2018-08-25T19:58:39.947Z,51.00
2018-08-25T20:01:08.641Z,50.50
2018-08-25T20:03:37.448Z,50.50
2018-08-25T20:06:06.765Z,50.40
2018-08-25T20:08:35.363Z,50.70
2018-08-25T20:11:04.207Z,50.70
2018-08-25T20:13:33.813Z,50.70
2018-08-25T20:16:03.098Z,50.70
2018-08-25T20:18:31.754Z,50.70
2018-08-25T20:21:00.556Z,50.70
2018-08-25T20:23:29.274Z,50.70
2018-08-25T20:25:58.568Z,50.80
2018-08-25T20:28:27.258Z,50.90
2018-08-25T20:30:56.254Z,50.90
2018-08-25T20:33:24.620Z,51.00
2018-08-25T20:35:52.972Z,51.10
2018-08-25T20:38:21.578Z,50.90
2018-08-25T20:40:49.939Z,51.00
2018-08-25T20:43:18.944Z,51.10
2018-08-25T20:45:47.694Z,51.10
2018-08-25T20:48:16.827Z,51.10
2018-08-25T20:50:45.423Z,51.20
2018-08-25T20:53:13.792Z,51.30
2018-08-25T20:55:42.310Z,51.20
2018-08-25T20:58:10.883Z,51.90
2018-08-25T21:00:39.487Z,51.20
2018-08-25T21:03:07.902Z,51.30
2018-08-25T21:05:36.252Z,51.40
2018-08-25T21:08:04.625Z,50.90
2018-08-25T21:10:33.040Z,51.50
2018-08-25T21:13:01.487Z,51.50
2018-08-25T21:15:29.818Z,51.40
2018-08-25T21:17:58.196Z,51.50
2018-08-25T21:20:26.561Z,51.60
2018-08-25T21:22:54.897Z,51.40
2018-08-25T21:25:23.488Z,51.00
2018-08-25T21:27:51.803Z,50.20
2018-08-25T21:30:20.215Z,50.20
2018-08-25T21:32:48.530Z,50.10
2018-08-25T21:35:16.836Z,50.10
2018-08-25T21:37:45.180Z,49.70
2018-08-25T21:40:13.471Z,49.50
2018-08-25T21:42:41.855Z,49.10
2018-08-25T21:45:10.228Z,48.80
2018-08-25T21:47:38.676Z,48.90
2018-08-25T21:50:07.299Z,49.00
2018-08-25T21:52:35.648Z,48.70
2018-08-25T21:55:04.234Z,48.60
2018-08-25T21:57:32.524Z,48.60
2018-08-25T22:00:00.925Z,48.50
2018-08-25T22:02:29.266Z,48.70
2018-08-25T22:04:57.640Z,49.20
2018-08-25T22:07:26.162Z,48.40
2018-08-25T22:09:54.462Z,48.30
2018-08-25T22:12:22.817Z,47.90
2018-08-25T22:14:51.166Z,48.30
2018-08-25T22:17:19.525Z,47.90
2018-08-25T22:19:47.810Z,47.90
2018-08-25T22:22:16.176Z,47.70
2018-08-25T22:24:44.582Z,48.10
2018-08-25T22:27:12.966Z,48.50
2018-08-25T22:29:41.262Z,48.50
2018-08-25T22:32:09.568Z,48.60
2018-08-25T22:34:38.220Z,48.70
2018-08-25T22:37:06.573Z,48.70
2018-08-25T22:39:35.061Z,48.70
2018-08-25T22:42:03.424Z,48.90
2018-08-25T22:44:31.921Z,48.70
2018-08-25T22:47:00.205Z,49.10
2018-08-25T22:49:28.605Z,49.00
2018-08-25T22:51:56.906Z,49.00
2018-08-25T22:54:25.243Z,49.20
2018-08-25T22:56:53.545Z,49.20
2018-08-25T22:59:22.269Z,49.40
2018-08-25T23:01:50.689Z,49.50
2018-08-25T23:04:19.051Z,49.60
2018-08-25T23:06:47.472Z,49.70
2018-08-25T23:09:15.848Z,49.60
2018-08-25T23:11:44.370Z,49.70
2018-08-25T23:14:12.707Z,49.90
2018-08-25T23:16:41.137Z,50.00
2018-08-25T23:19:09.509Z,50.10
2018-08-25T23:21:37.902Z,50.20
2018-08-25T23:24:06.335Z,50.30
2018-08-25T23:26:34.805Z,50.40
2018-08-25T23:29:03.176Z,50.60
2018-08-25T23:31:31.548Z,50.70
2018-08-25T23:33:59.909Z,50.70
2018-08-25T23:36:28.428Z,50.70
2018-08-25T23:38:56.982Z,50.70
2018-08-25T23:41:25.279Z,50.60
2018-08-25T23:43:53.641Z,50.50
2018-08-25T23:46:22.012Z,50.50
2018-08-25T23:48:50.380Z,50.50
2018-08-25T23:51:18.768Z,50.60
2018-08-25T23:53:47.110Z,50.70
2018-08-25T23:56:15.451Z,50.70
2018-08-25T23:58:43.819Z,50.60
